»·PEaware :: AAL824 KLAX-KLAS

AAL824 :: KLAX-KLAS

FLIGHT INFORMATION

Flight Status: Arrived
Operator:
American Airlines
More flights by this operator :: More flights under this callsign
Pilot: Andrew S. (20703)
Aircraft: BOEING 737-800
(B738)
More flights by this aircraft type
Origin: KLAX Los Angeles Intl
United States
Destination: KLAS McCarran Intl
United States
More flights between these airports :: More routes between these airports
Route: ORCKA3 MISEN KEPEC6
File this flight plan on PilotEdge
Remarks: RMK / SIMBRIEF
Altitude:
(Current/Filed)
29,000ft
Speed:
(Current/Filed)
409kts
Departed: 01-Dec-19 06:43 PM
Arrived: 01-Dec-19 07:35 PM
Distance/Time
Traveled:
205nm/0:52
Distance/Time
To Go:
Arrived

Flight Plot

Page will automatically refresh every two minutes.

Flight plan parsing failed; only flown route is shown


Map Options




Map Legend


Flown Route
Filed Route
Departure Airport
Arrival Airport
Navaid (VOR, NDB)
Fix

Horizontal Profiles

Position Reports

Time Latitude Longitude Heading Altitude Ground
Speed
01-Dec-19 18:17 33.940376 -118.406140 266 133ft 0kts
01-Dec-19 18:17 33.940376 -118.406140 266 132ft 0kts
01-Dec-19 18:18 33.940376 -118.406140 266 132ft 0kts
01-Dec-19 18:19 33.940376 -118.406140 266 132ft 0kts
01-Dec-19 18:20 33.940376 -118.406140 266 132ft 0kts
01-Dec-19 18:21 33.940376 -118.406140 266 132ft 0kts
01-Dec-19 18:22 33.940376 -118.406140 266 132ft 0kts
01-Dec-19 18:23 33.940376 -118.406140 266 132ft 0kts
01-Dec-19 18:24 33.940376 -118.406140 266 132ft 0kts
01-Dec-19 18:25 33.940376 -118.406140 266 132ft 0kts
01-Dec-19 18:26 33.940376 -118.406140 266 132ft 0kts
01-Dec-19 18:27 33.940376 -118.406140 266 133ft 0kts
01-Dec-19 18:28 33.940512 -118.405747 220 133ft 2kts
01-Dec-19 18:29 33.940896 -118.405626 172 133ft 0kts
01-Dec-19 18:30 33.940896 -118.405626 172 133ft 0kts
01-Dec-19 18:31 33.940896 -118.405626 172 133ft 0kts
01-Dec-19 18:32 33.940896 -118.405626 172 133ft 0kts
01-Dec-19 18:33 33.940896 -118.405626 172 133ft 0kts
01-Dec-19 18:34 33.940896 -118.405626 172 133ft 0kts
01-Dec-19 18:35 33.940896 -118.405626 172 133ft 0kts
01-Dec-19 18:36 33.939508 -118.400892 83 133ft 40kts
01-Dec-19 18:37 33.940803 -118.387555 82 132ft 35kts
01-Dec-19 18:38 33.940764 -118.380704 83 132ft 0kts
01-Dec-19 18:39 33.940764 -118.380704 83 132ft 0kts
01-Dec-19 18:40 33.940764 -118.380704 83 132ft 0kts
01-Dec-19 18:41 33.940279 -118.380007 172 133ft 14kts
01-Dec-19 18:42 33.939246 -118.386147 261 133ft 96kts
01-Dec-19 18:43 33.933519 -118.441135 264 1755ft 190kts
01-Dec-19 18:44 33.916085 -118.515060 249 3670ft 251kts
01-Dec-19 18:45 33.889108 -118.594497 244 4995ft 253kts
01-Dec-19 18:46 33.831170 -118.597046 117 6576ft 285kts
01-Dec-19 18:47 33.864096 -118.513369 42 9253ft 307kts
01-Dec-19 18:48 33.929773 -118.437343 49 11303ft 348kts
01-Dec-19 18:49 33.986895 -118.337766 56 13876ft 370kts
01-Dec-19 18:50 34.046711 -118.232196 56 16396ft 391kts
01-Dec-19 18:51 34.109306 -118.121626 56 18708ft 411kts
01-Dec-19 18:52 34.175572 -118.004007 56 20832ft 430kts
01-Dec-19 18:53 34.244475 -117.881465 56 22780ft 448kts
01-Dec-19 18:54 34.316111 -117.753621 56 24575ft 465kts
01-Dec-19 18:55 34.391987 -117.622105 54 26244ft 481kts
01-Dec-19 18:56 34.472551 -117.487453 54 27796ft 496kts
01-Dec-19 18:57 34.554656 -117.349304 55 29153ft 512kts
01-Dec-19 18:58 34.641164 -117.203326 55 29198ft 535kts
01-Dec-19 18:59 34.728095 -117.055882 54 29206ft 531kts
01-Dec-19 19:00 34.813636 -116.910208 54 29213ft 507kts
01-Dec-19 19:01 34.894528 -116.771894 54 29228ft 504kts
01-Dec-19 19:02 34.974923 -116.630335 54 28312ft 504kts
01-Dec-19 19:03 35.053980 -116.490093 54 25768ft 493kts
01-Dec-19 19:04 35.134697 -116.363284 42 24229ft 454kts
01-Dec-19 19:05 35.223343 -116.252484 43 23828ft 450kts
01-Dec-19 19:06 35.310477 -116.142995 43 21399ft 436kts
01-Dec-19 19:07 35.392671 -116.039408 43 19392ft 415kts
01-Dec-19 19:08 35.472529 -115.938450 43 17234ft 407kts
01-Dec-19 19:09 35.548261 -115.842394 43 15428ft 378kts
01-Dec-19 19:10 35.619850 -115.751355 44 13769ft 361kts
01-Dec-19 19:11 35.686653 -115.666046 44 13047ft 326kts
01-Dec-19 19:12 35.755728 -115.592540 22 13043ft 326kts
01-Dec-19 19:13 35.842408 -115.570736 357 13041ft 315kts
01-Dec-19 19:14 35.929394 -115.557756 17 13031ft 323kts
01-Dec-19 19:15 35.994429 -115.484028 62 12135ft 320kts
01-Dec-19 19:16 36.025865 -115.383252 81 11092ft 298kts
01-Dec-19 19:17 36.024646 -115.284538 95 10110ft 283kts
01-Dec-19 19:18 36.017532 -115.187378 94 8923ft 276kts
01-Dec-19 19:19 36.011282 -115.095018 93 8113ft 254kts
01-Dec-19 19:20 36.006088 -115.009628 93 8029ft 248kts
01-Dec-19 19:21 36.000994 -114.924120 93 8027ft 246kts
01-Dec-19 19:22 35.995864 -114.839086 93 8027ft 247kts
01-Dec-19 19:23 35.990281 -114.754041 94 8027ft 246kts
01-Dec-19 19:24 35.999309 -114.674650 38 8038ft 215kts
01-Dec-19 19:25 36.046584 -114.689397 294 8037ft 201kts
01-Dec-19 19:26 36.067925 -114.753247 290 7996ft 201kts
01-Dec-19 19:27 36.073247 -114.821803 271 6883ft 197kts
01-Dec-19 19:28 36.073408 -114.888113 272 5849ft 177kts
01-Dec-19 19:29 36.073546 -114.948865 272 4919ft 176kts
01-Dec-19 19:30 36.073621 -115.007137 272 4022ft 166kts
01-Dec-19 19:31 36.073646 -115.061728 272 3178ft 147kts
01-Dec-19 19:32 36.073662 -115.112914 271 2474ft 148kts
01-Dec-19 19:33 36.074121 -115.149113 296 2189ft 41kts
01-Dec-19 19:34 36.075120 -115.151069 314 2189ft 2kts
01-Dec-19 19:35 36.083041 -115.154174 45 2188ft 25kts
01-Dec-19 19:36 36.082949 -115.153514 135 2189ft 0kts
01-Dec-19 19:37 36.082949 -115.153514 135 2189ft 0kts
01-Dec-19 19:38 36.082949 -115.153514 135 2189ft 0kts
01-Dec-19 19:39 36.082949 -115.153514 135 2189ft 0kts
01-Dec-19 19:40 36.082949 -115.153514 135 2189ft 0kts

Navigation Log

Ident Type
Flight plan parsing failed, navigation log unavailable